createdAt,value
2019-02-22T00:00:09.887Z,8.65
2019-02-22T00:02:39.602Z,8.57
2019-02-22T00:05:08.071Z,8.65
2019-02-22T00:07:36.277Z,8.66
2019-02-22T00:10:07.125Z,8.55
2019-02-22T00:12:35.194Z,8.60
2019-02-22T00:15:03.646Z,8.62
2019-02-22T00:17:31.730Z,8.55
2019-02-22T00:19:59.883Z,8.56
2019-02-22T00:22:27.991Z,8.64
2019-02-22T00:24:56.055Z,8.55
2019-02-22T00:27:24.344Z,8.60
2019-02-22T00:29:52.496Z,8.61
2019-02-22T00:32:20.588Z,8.67
2019-02-22T00:34:49.060Z,8.60
2019-02-22T00:37:17.141Z,8.57
2019-02-22T00:43:40.779Z,8.54
2019-02-22T00:46:09.244Z,8.53
2019-02-22T00:48:37.719Z,8.58
2019-02-22T00:51:05.817Z,8.49
2019-02-22T00:53:33.867Z,8.57
2019-02-22T00:56:02.443Z,8.51
2019-02-22T00:58:30.590Z,8.50
2019-02-22T01:00:58.679Z,8.51
2019-02-22T01:03:26.741Z,8.50
2019-02-22T01:05:54.881Z,8.50
2019-02-22T01:08:22.991Z,8.46
2019-02-22T01:10:51.147Z,8.37
2019-02-22T01:13:19.240Z,8.39
2019-02-22T01:15:47.286Z,8.49
2019-02-22T01:18:15.582Z,8.49
2019-02-22T01:20:54.051Z,8.54
2019-02-22T01:23:14.547Z,8.56
2019-02-22T01:25:43.123Z,8.33
2019-02-22T01:28:11.227Z,8.47
2019-02-22T01:30:39.655Z,8.47
2019-02-22T01:33:07.954Z,8.31
2019-02-22T01:35:36.242Z,8.28
2019-02-22T01:38:04.450Z,8.34
2019-02-22T01:40:43.212Z,8.27
2019-02-22T01:43:02.760Z,8.16
2019-02-22T01:45:30.931Z,8.26
2019-02-22T01:48:00.274Z,8.24
2019-02-22T01:50:29.350Z,8.13
2019-02-22T01:52:57.425Z,8.19
2019-02-22T01:55:25.517Z,8.14
2019-02-22T01:57:54.140Z,8.14
2019-02-22T02:00:22.450Z,8.20
2019-02-22T02:02:50.822Z,8.27
2019-02-22T02:05:19.164Z,8.23
2019-02-22T02:07:47.888Z,8.23
2019-02-22T02:10:16.082Z,8.24
2019-02-22T02:12:44.238Z,8.20
2019-02-22T02:15:12.458Z,8.07
2019-02-22T02:17:41.027Z,8.01
2019-02-22T02:20:09.980Z,7.94
2019-02-22T02:22:38.127Z,7.93
2019-02-22T02:25:08.041Z,7.97
2019-02-22T02:27:36.297Z,8.05
2019-02-22T02:30:05.342Z,8.08
2019-02-22T02:32:33.370Z,7.98
2019-02-22T02:35:01.530Z,7.95
2019-02-22T02:37:29.700Z,7.99
2019-02-22T02:39:57.951Z,8.00
2019-02-22T02:42:26.064Z,7.98
2019-02-22T02:44:54.227Z,7.92
2019-02-22T02:47:23.043Z,7.89
2019-02-22T02:49:51.149Z,7.99
2019-02-22T02:52:19.678Z,7.74
2019-02-22T02:54:47.764Z,7.89
2019-02-22T02:57:15.877Z,7.93
2019-02-22T02:59:43.949Z,7.99
2019-02-22T03:02:22.291Z,7.88
2019-02-22T03:04:50.347Z,8.02
2019-02-22T03:07:40.851Z,8.03
2019-02-22T03:10:09.135Z,8.02
2019-02-22T03:12:37.331Z,8.05
2019-02-22T03:15:08.029Z,8.10
2019-02-22T03:17:36.754Z,7.90
2019-02-22T03:20:05.333Z,8.04
2019-02-22T03:22:33.505Z,7.93
2019-02-22T03:25:01.777Z,7.95
2019-02-22T03:27:30.003Z,8.00
2019-02-22T03:29:58.175Z,7.99
2019-02-22T03:32:26.436Z,7.90
2019-02-22T03:34:54.979Z,8.00
2019-02-22T03:37:24.135Z,7.82
2019-02-22T03:39:52.456Z,7.98
2019-02-22T03:42:20.755Z,7.85
2019-02-22T03:44:51.917Z,7.91
2019-02-22T03:47:20.073Z,7.97
2019-02-22T03:49:49.154Z,7.97
2019-02-22T03:52:39.666Z,7.85
2019-02-22T03:55:07.975Z,7.94
2019-02-22T03:57:37.276Z,7.90
2019-02-22T04:00:06.651Z,7.92
2019-02-22T04:02:35.009Z,7.85
2019-02-22T04:05:03.566Z,7.85
2019-02-22T04:07:31.729Z,7.87
2019-02-22T04:10:00.033Z,7.78
2019-02-22T04:12:28.426Z,7.85
2019-02-22T04:14:56.608Z,7.81
2019-02-22T04:17:24.881Z,7.76
2019-02-22T04:19:53.070Z,7.81
2019-02-22T04:22:21.112Z,7.67
2019-02-22T04:24:50.349Z,7.72
2019-02-22T04:27:18.935Z,7.59
2019-02-22T04:29:47.039Z,7.63
2019-02-22T04:32:15.485Z,7.65
2019-02-22T04:34:44.199Z,7.67
2019-02-22T04:37:12.340Z,7.67
2019-02-22T04:39:41.022Z,7.57
2019-02-22T04:42:09.251Z,7.63
2019-02-22T04:44:37.523Z,7.59
2019-02-22T04:47:05.614Z,7.62
2019-02-22T04:49:34.237Z,7.64
2019-02-22T04:52:02.298Z,7.70
2019-02-22T04:54:30.355Z,7.62
2019-02-22T04:56:58.850Z,7.61
2019-02-22T04:59:26.940Z,7.71
2019-02-22T05:01:55.200Z,7.67
2019-02-22T05:04:23.425Z,7.66
2019-02-22T05:06:52.108Z,7.68
2019-02-22T05:09:20.381Z,7.57
2019-02-22T05:11:48.624Z,7.48
2019-02-22T05:14:16.778Z,7.72
2019-02-22T05:16:44.847Z,7.66
2019-02-22T05:19:12.999Z,7.64
2019-02-22T05:21:41.594Z,7.65
2019-02-22T05:24:09.682Z,7.69
2019-02-22T05:26:38.248Z,7.60
2019-02-22T05:29:06.460Z,7.62
2019-02-22T05:31:35.038Z,7.72
2019-02-22T05:34:03.213Z,7.67
2019-02-22T05:36:31.246Z,7.62
2019-02-22T05:38:59.518Z,7.64
2019-02-22T05:41:32.163Z,7.59
2019-02-22T05:44:00.377Z,7.64
2019-02-22T05:46:29.238Z,7.63
2019-02-22T05:48:57.366Z,7.60
2019-02-22T05:51:25.459Z,7.51
2019-02-22T05:53:53.605Z,7.46
2019-02-22T05:56:21.681Z,7.37
2019-02-22T05:58:49.770Z,7.45
2019-02-22T06:01:19.290Z,7.51
2019-02-22T06:03:47.514Z,7.37
2019-02-22T06:06:15.743Z,7.34
2019-02-22T06:08:43.796Z,7.30
2019-02-22T06:11:12.591Z,7.46
2019-02-22T06:13:40.659Z,7.32
2019-02-22T06:16:08.773Z,7.29
2019-02-22T06:18:36.875Z,7.47
2019-02-22T06:21:05.130Z,7.30
2019-02-22T06:23:33.207Z,7.23
2019-02-22T06:26:01.946Z,7.25
2019-02-22T06:28:31.911Z,7.26
2019-02-22T06:30:59.976Z,7.26
2019-02-22T06:33:28.327Z,7.51
2019-02-22T06:35:56.452Z,7.37
2019-02-22T06:38:25.043Z,7.43
2019-02-22T06:40:53.194Z,7.51
2019-02-22T06:43:21.643Z,7.37
2019-02-22T06:45:49.802Z,7.51
2019-02-22T06:48:17.908Z,7.39
2019-02-22T06:50:46.012Z,7.40
2019-02-22T06:53:15.134Z,7.39
2019-02-22T06:55:43.315Z,7.48
2019-02-22T06:58:11.884Z,7.39
2019-02-22T07:00:40.033Z,7.42
2019-02-22T07:03:08.108Z,7.44
2019-02-22T07:05:37.033Z,7.41
2019-02-22T07:08:05.097Z,7.40
2019-02-22T07:10:52.979Z,7.31
2019-02-22T07:13:21.109Z,7.34
2019-02-22T07:15:49.395Z,7.39
2019-02-22T07:18:17.566Z,7.47
2019-02-22T07:20:46.383Z,7.49
2019-02-22T07:23:14.469Z,7.48
2019-02-22T07:25:42.589Z,7.45
2019-02-22T07:28:10.737Z,7.70
2019-02-22T07:30:38.843Z,7.71
2019-02-22T07:33:07.127Z,7.68
2019-02-22T07:35:35.340Z,7.47
2019-02-22T07:38:03.419Z,7.37
2019-02-22T07:40:31.593Z,7.25
2019-02-22T07:43:07.707Z,7.28
2019-02-22T07:45:29.767Z,7.45
2019-02-22T07:47:57.919Z,7.33
2019-02-22T07:50:26.079Z,7.28
2019-02-22T07:52:54.297Z,7.33
2019-02-22T07:55:22.429Z,7.44
2019-02-22T07:57:50.559Z,7.43
2019-02-22T08:00:18.651Z,7.55
2019-02-22T08:02:47.563Z,7.41
2019-02-22T08:05:15.803Z,7.37
2019-02-22T08:07:44.210Z,7.37
2019-02-22T08:10:12.413Z,7.44
2019-02-22T08:12:40.690Z,7.41
2019-02-22T08:15:10.572Z,7.44
2019-02-22T08:17:38.860Z,7.69
2019-02-22T08:20:07.671Z,7.54
2019-02-22T08:22:35.962Z,7.44
2019-02-22T08:25:04.267Z,7.55
2019-02-22T08:27:32.497Z,7.61
2019-02-22T08:30:00.831Z,7.64
2019-02-22T08:32:28.944Z,7.60
2019-02-22T08:34:57.097Z,7.60
2019-02-22T08:37:25.224Z,7.64
2019-02-22T08:39:58.640Z,7.61
2019-02-22T08:42:25.617Z,7.67
2019-02-22T08:44:54.047Z,7.78
2019-02-22T08:47:22.287Z,7.74
2019-02-22T08:49:50.432Z,7.83
2019-02-22T08:52:18.693Z,7.95
2019-02-22T08:54:47.520Z,7.90
2019-02-22T08:57:16.186Z,7.87
2019-02-22T08:59:44.325Z,7.75
2019-02-22T09:02:13.110Z,7.75
2019-02-22T09:04:41.518Z,7.75
2019-02-22T09:07:10.840Z,7.69
2019-02-22T09:09:39.293Z,7.54
2019-02-22T09:12:07.661Z,7.69
2019-02-22T09:14:36.156Z,7.66
2019-02-22T09:17:04.871Z,7.67
2019-02-22T09:19:33.370Z,7.63
2019-02-22T09:22:02.335Z,7.62
2019-02-22T09:24:31.388Z,7.73
2019-02-22T09:26:59.554Z,7.84
2019-02-22T09:29:27.679Z,7.93
2019-02-22T09:31:55.922Z,8.02
2019-02-22T09:34:24.470Z,7.95
2019-02-22T09:36:53.388Z,7.94
2019-02-22T09:39:21.823Z,7.98
2019-02-22T09:41:49.989Z,7.88
2019-02-22T09:44:18.890Z,8.01
2019-02-22T09:46:48.059Z,7.91
2019-02-22T09:49:16.304Z,7.88
2019-02-22T09:51:44.498Z,7.88
2019-02-22T09:54:12.697Z,7.90
2019-02-22T09:56:41.841Z,7.96
2019-02-22T09:59:09.914Z,8.03
2019-02-22T10:01:38.102Z,7.89
2019-02-22T10:04:06.616Z,7.98
2019-02-22T10:06:34.735Z,7.96
2019-02-22T10:09:05.768Z,7.96
2019-02-22T10:11:34.058Z,8.09
2019-02-22T10:14:06.602Z,8.04
2019-02-22T10:16:33.887Z,8.03
2019-02-22T10:19:02.030Z,8.01
2019-02-22T10:21:30.402Z,8.04
2019-02-22T10:23:58.498Z,8.17
2019-02-22T10:26:26.570Z,8.37
2019-02-22T10:28:54.678Z,8.15
2019-02-22T10:31:23.003Z,8.10
2019-02-22T10:33:51.088Z,8.13
2019-02-22T10:36:19.846Z,8.04
2019-02-22T10:38:48.283Z,8.00
2019-02-22T10:41:16.743Z,8.16
2019-02-22T10:43:45.003Z,8.12
2019-02-22T10:46:13.037Z,8.14
2019-02-22T10:48:41.164Z,8.05
2019-02-22T10:51:09.230Z,8.11
2019-02-22T10:53:37.325Z,8.13
2019-02-22T10:56:05.495Z,8.10
2019-02-22T10:58:33.740Z,8.12
2019-02-22T11:01:02.117Z,8.08
2019-02-22T11:03:30.611Z,8.08
2019-02-22T11:05:58.697Z,8.14
2019-02-22T11:08:27.305Z,8.26
2019-02-22T11:10:55.493Z,8.32
2019-02-22T11:13:25.420Z,8.30
2019-02-22T11:15:53.702Z,8.30
2019-02-22T11:18:21.937Z,8.23
2019-02-22T11:20:51.622Z,8.20
2019-02-22T11:23:19.844Z,8.20
2019-02-22T11:25:48.069Z,8.21
2019-02-22T11:28:16.557Z,8.29
2019-02-22T11:30:45.060Z,8.24
2019-02-22T11:33:13.216Z,8.20
2019-02-22T11:35:41.429Z,8.22
2019-02-22T11:38:09.486Z,8.16
2019-02-22T11:40:37.690Z,8.13
2019-02-22T11:43:05.875Z,8.23
2019-02-22T11:45:34.123Z,8.10
2019-02-22T11:48:09.234Z,7.65
2019-02-22T11:50:32.254Z,7.53
2019-02-22T11:53:02.123Z,7.49
2019-02-22T11:55:30.726Z,7.60
2019-02-22T11:57:58.890Z,7.45
2019-02-22T12:00:29.096Z,7.41
2019-02-22T12:02:57.184Z,7.02
2019-02-22T12:05:25.396Z,7.23
2019-02-22T12:07:53.787Z,7.24
2019-02-22T12:10:22.448Z,7.16
2019-02-22T12:12:50.874Z,7.26
2019-02-22T12:15:19.014Z,7.26
2019-02-22T12:17:47.082Z,7.18
2019-02-22T12:20:15.700Z,7.08
2019-02-22T12:22:43.992Z,7.06
2019-02-22T12:25:12.201Z,7.21
2019-02-22T12:27:40.282Z,7.16
2019-02-22T12:30:11.426Z,7.00
2019-02-22T12:32:39.783Z,7.14
2019-02-22T12:35:08.130Z,7.09
2019-02-22T12:37:36.215Z,7.02
2019-02-22T12:40:05.210Z,7.12
2019-02-22T12:42:33.531Z,7.00
2019-02-22T12:45:04.046Z,7.09
2019-02-22T12:47:32.184Z,7.05
2019-02-22T12:50:00.360Z,6.97
2019-02-22T12:52:28.528Z,7.06
2019-02-22T12:54:56.611Z,7.04
2019-02-22T12:57:24.734Z,6.83
2019-02-22T12:59:52.951Z,6.82
2019-02-22T13:02:21.163Z,7.03
2019-02-22T13:04:49.269Z,6.84
2019-02-22T13:07:17.389Z,6.89
2019-02-22T13:09:45.573Z,7.03
2019-02-22T13:12:16.527Z,7.17
2019-02-22T13:14:43.900Z,7.22
2019-02-22T13:17:12.023Z,7.12
2019-02-22T13:19:40.098Z,7.10
2019-02-22T13:22:08.473Z,7.02
2019-02-22T13:24:36.593Z,7.13
2019-02-22T13:27:04.829Z,7.12
2019-02-22T13:29:33.716Z,7.13
2019-02-22T13:32:01.835Z,7.32
2019-02-22T13:34:29.895Z,7.36
2019-02-22T13:36:58.393Z,7.35
2019-02-22T13:39:26.682Z,7.47
2019-02-22T13:41:54.834Z,7.50
2019-02-22T13:44:23.219Z,7.48
2019-02-22T13:46:51.634Z,7.62
2019-02-22T13:49:19.885Z,7.55
2019-02-22T13:51:48.096Z,7.73
2019-02-22T13:54:16.279Z,7.74
2019-02-22T13:56:44.440Z,7.89
2019-02-22T13:59:12.542Z,7.60
2019-02-22T14:01:40.670Z,7.60
2019-02-22T14:04:08.883Z,7.44
2019-02-22T14:06:36.950Z,7.47
2019-02-22T14:09:06.256Z,7.48
2019-02-22T14:11:34.500Z,7.44
2019-02-22T14:14:02.695Z,7.50
2019-02-22T14:16:30.773Z,7.72
2019-02-22T14:18:58.885Z,8.12
2019-02-22T14:21:27.282Z,7.96
2019-02-22T14:23:56.138Z,7.86
2019-02-22T14:26:24.530Z,7.87
2019-02-22T14:28:52.628Z,7.89
2019-02-22T14:31:20.761Z,7.90
2019-02-22T14:33:48.808Z,8.04
2019-02-22T14:36:17.085Z,7.80
2019-02-22T14:38:45.552Z,7.76
2019-02-22T14:41:13.827Z,7.54
2019-02-22T14:43:41.900Z,7.45
2019-02-22T14:46:10.112Z,7.45
2019-02-22T14:48:38.196Z,7.60
2019-02-22T14:51:06.777Z,7.60
2019-02-22T14:53:34.835Z,7.57
2019-02-22T14:56:02.934Z,7.65
2019-02-22T14:58:30.988Z,7.69
2019-02-22T15:00:59.113Z,7.78
2019-02-22T15:03:27.533Z,7.85
2019-02-22T15:05:55.658Z,7.97
2019-02-22T15:08:24.032Z,7.89
2019-02-22T15:10:52.574Z,7.99
2019-02-22T15:13:20.881Z,7.87
2019-02-22T15:16:07.483Z,7.77
2019-02-22T15:18:35.573Z,7.74
2019-02-22T15:21:03.746Z,7.79
2019-02-22T15:23:31.789Z,7.70
2019-02-22T15:25:59.979Z,7.66
2019-02-22T15:28:28.154Z,7.67
2019-02-22T15:30:56.583Z,7.61
2019-02-22T15:33:24.739Z,7.69
2019-02-22T15:35:53.113Z,7.77
2019-02-22T15:38:21.513Z,7.67
2019-02-22T15:40:49.579Z,7.59
2019-02-22T15:43:17.999Z,7.45
2019-02-22T15:45:47.127Z,7.41
2019-02-22T15:48:16.922Z,7.46
2019-02-22T15:50:45.046Z,7.36
2019-02-22T15:53:13.701Z,7.23
2019-02-22T15:55:41.752Z,7.26
2019-02-22T15:58:09.907Z,7.24
2019-02-22T16:00:37.934Z,7.24
2019-02-22T16:03:06.315Z,7.30
2019-02-22T16:05:40.265Z,7.16
2019-02-22T16:08:10.386Z,7.15
2019-02-22T16:10:40.650Z,7.13
2019-02-22T16:13:10.078Z,7.25
2019-02-22T16:15:40.598Z,7.10
2019-02-22T16:18:09.059Z,7.12
2019-02-22T16:20:37.629Z,7.11
2019-02-22T16:23:05.806Z,7.04
2019-02-22T16:25:34.340Z,7.07
2019-02-22T16:28:02.463Z,7.07
2019-02-22T16:30:32.562Z,7.05
2019-02-22T16:33:00.666Z,6.94
2019-02-22T16:35:29.041Z,6.89
2019-02-22T16:37:57.395Z,6.83
2019-02-22T16:40:25.567Z,6.77
2019-02-22T16:42:53.964Z,6.76
2019-02-22T16:45:22.687Z,6.66
2019-02-22T16:47:50.843Z,6.65
2019-02-22T16:50:19.839Z,6.58
2019-02-22T16:52:48.085Z,6.51
2019-02-22T16:55:16.266Z,6.47
2019-02-22T16:57:44.362Z,6.46
2019-02-22T17:00:13.207Z,6.46
2019-02-22T17:02:41.547Z,6.43
2019-02-22T17:05:12.050Z,6.36
2019-02-22T17:07:40.549Z,6.46
2019-02-22T17:10:09.645Z,6.29
2019-02-22T17:12:38.182Z,6.32
2019-02-22T17:15:11.196Z,6.34
2019-02-22T17:17:39.252Z,6.34
2019-02-22T17:20:09.625Z,6.30
2019-02-22T17:22:37.685Z,6.23
2019-02-22T17:25:08.293Z,6.21
2019-02-22T17:27:36.383Z,6.19
2019-02-22T17:30:05.931Z,6.17
2019-02-22T17:32:34.343Z,6.14
2019-02-22T17:35:02.912Z,6.10
2019-02-22T17:37:31.080Z,6.11
2019-02-22T17:39:59.156Z,6.05
2019-02-22T17:42:27.638Z,6.04
2019-02-22T17:44:56.131Z,5.96
2019-02-22T17:47:24.501Z,5.92
2019-02-22T17:49:52.622Z,5.91
2019-02-22T17:52:20.749Z,5.91
2019-02-22T17:54:48.931Z,5.87
2019-02-22T17:57:17.530Z,5.84
2019-02-22T17:59:45.671Z,5.77
2019-02-22T18:02:13.962Z,5.72
2019-02-22T18:04:42.065Z,5.71
2019-02-22T18:07:10.138Z,5.72
2019-02-22T18:09:38.450Z,5.71
2019-02-22T18:12:07.668Z,5.61
2019-02-22T18:14:35.846Z,5.61
2019-02-22T18:17:08.474Z,5.70
2019-02-22T18:19:34.957Z,5.66
2019-02-22T18:22:03.099Z,5.62
2019-02-22T18:24:31.351Z,5.62
2019-02-22T18:26:59.596Z,5.49
2019-02-22T18:29:35.036Z,5.52
2019-02-22T18:31:58.185Z,5.34
2019-02-22T18:34:26.399Z,5.09
2019-02-22T18:36:54.489Z,4.88
2019-02-22T18:39:22.676Z,4.92
2019-02-22T18:41:50.751Z,4.85
2019-02-22T18:44:19.320Z,4.80
2019-02-22T18:46:47.552Z,4.80
2019-02-22T18:49:16.152Z,4.45
2019-02-22T18:51:44.308Z,4.48
2019-02-22T18:54:12.490Z,4.29
2019-02-22T18:56:42.051Z,4.46
2019-02-22T18:59:11.060Z,4.27
2019-02-22T19:01:39.312Z,4.23
2019-02-22T19:04:07.474Z,4.17
2019-02-22T19:06:35.568Z,4.03
2019-02-22T19:09:05.478Z,4.09
2019-02-22T19:11:34.075Z,3.98
2019-02-22T19:14:02.170Z,3.86
2019-02-22T19:16:30.642Z,3.78
2019-02-22T19:18:58.773Z,3.63
2019-02-22T19:21:26.833Z,3.79
2019-02-22T19:23:54.974Z,3.78
2019-02-22T19:26:23.254Z,3.72
2019-02-22T19:28:51.799Z,3.79
2019-02-22T19:31:20.119Z,3.80
2019-02-22T19:33:49.906Z,3.74
2019-02-22T19:36:18.344Z,3.59
2019-02-22T19:38:47.067Z,3.79
2019-02-22T19:41:15.419Z,3.71
2019-02-22T19:43:43.849Z,3.72
2019-02-22T19:46:12.072Z,3.36
2019-02-22T19:48:41.000Z,3.55
2019-02-22T19:51:09.230Z,3.52
2019-02-22T19:53:38.118Z,3.54
2019-02-22T19:56:06.790Z,3.44
2019-02-22T19:58:35.244Z,3.56
2019-02-22T20:01:04.149Z,3.34
2019-02-22T20:03:32.479Z,3.38
2019-02-22T20:06:01.266Z,3.41
2019-02-22T20:08:30.263Z,3.27
2019-02-22T20:10:58.729Z,3.34
2019-02-22T20:13:27.209Z,3.25
2019-02-22T20:15:55.613Z,3.34
2019-02-22T20:18:24.311Z,3.11
2019-02-22T20:20:52.921Z,2.99
2019-02-22T20:23:21.301Z,3.23
2019-02-22T20:25:49.693Z,3.20
2019-02-22T20:28:18.020Z,3.00
2019-02-22T20:30:46.574Z,3.22
2019-02-22T20:33:14.906Z,3.04
2019-02-22T20:35:43.401Z,2.99
2019-02-22T20:38:11.780Z,3.12
2019-02-22T20:40:40.649Z,2.92
2019-02-22T20:43:09.173Z,3.05
2019-02-22T20:45:37.619Z,3.21
2019-02-22T20:48:06.224Z,3.17
2019-02-22T20:50:34.536Z,3.08
2019-02-22T20:53:03.367Z,3.16
2019-02-22T20:55:31.872Z,3.08
2019-02-22T20:58:01.656Z,3.17
2019-02-22T21:00:29.949Z,3.08
2019-02-22T21:02:58.240Z,2.98
2019-02-22T21:05:26.581Z,2.96
2019-02-22T21:07:54.828Z,2.87
2019-02-22T21:10:23.381Z,2.90
2019-02-22T21:12:51.653Z,2.78
2019-02-22T21:15:21.367Z,2.91
2019-02-22T21:17:51.314Z,2.78
2019-02-22T21:20:19.473Z,2.88
2019-02-22T21:22:47.562Z,2.93
2019-02-22T21:25:15.644Z,2.92
2019-02-22T21:27:43.765Z,2.82
2019-02-22T21:30:13.070Z,2.54
2019-02-22T21:32:41.352Z,2.78
2019-02-22T21:35:09.787Z,2.44
2019-02-22T21:37:37.931Z,2.73
2019-02-22T21:40:08.230Z,2.57
2019-02-22T21:42:36.337Z,2.73
2019-02-22T21:45:04.594Z,2.83
2019-02-22T21:47:32.678Z,2.71
2019-02-22T21:50:01.155Z,2.76
2019-02-22T21:52:29.449Z,2.70
2019-02-22T21:54:57.562Z,2.94
2019-02-22T21:57:25.676Z,2.81
2019-02-22T21:59:53.798Z,2.95
2019-02-22T22:02:22.278Z,2.83
2019-02-22T22:04:50.385Z,2.72
2019-02-22T22:07:20.501Z,2.82
2019-02-22T22:09:50.338Z,2.71
2019-02-22T22:12:18.485Z,2.75
2019-02-22T22:14:46.574Z,2.70
2019-02-22T22:17:14.691Z,2.74
2019-02-22T22:19:42.791Z,2.79
2019-02-22T22:22:11.435Z,2.72
2019-02-22T22:24:39.556Z,2.67
2019-02-22T22:27:08.986Z,2.57
2019-02-22T22:29:37.735Z,2.39
2019-02-22T22:32:05.775Z,2.34
2019-02-22T22:34:34.048Z,2.47
2019-02-22T22:37:02.394Z,2.43
2019-02-22T22:39:30.899Z,2.36
2019-02-22T22:41:59.588Z,2.36
2019-02-22T22:44:27.754Z,2.27
2019-02-22T22:46:55.952Z,2.24
2019-02-22T22:49:24.065Z,2.26
2019-02-22T22:51:53.302Z,2.19
2019-02-22T22:54:21.354Z,2.07
2019-02-22T22:56:50.518Z,2.16
2019-02-22T22:59:18.654Z,2.12
2019-02-22T23:01:47.427Z,2.09
2019-02-22T23:04:15.482Z,2.10
2019-02-22T23:06:44.582Z,2.10
2019-02-22T23:09:21.164Z,2.04
2019-02-22T23:11:49.664Z,2.06
2019-02-22T23:14:17.801Z,2.06
2019-02-22T23:16:46.007Z,2.03
2019-02-22T23:19:14.187Z,2.06
2019-02-22T23:21:42.255Z,2.02
2019-02-22T23:24:11.856Z,2.01
2019-02-22T23:26:39.947Z,2.06
2019-02-22T23:29:08.067Z,1.99
2019-02-22T23:31:36.141Z,1.93
2019-02-22T23:34:04.222Z,1.97
2019-02-22T23:36:32.401Z,1.87
2019-02-22T23:39:00.859Z,1.97
2019-02-22T23:41:28.942Z,1.92
2019-02-22T23:43:57.346Z,1.93
2019-02-22T23:46:25.422Z,1.84
2019-02-22T23:48:53.590Z,1.89
2019-02-22T23:51:21.680Z,1.83
2019-02-22T23:53:49.898Z,1.69
2019-02-22T23:56:18.249Z,1.78
2019-02-22T23:58:46.349Z,1.82
